Time;durP1;ratioP1;P1;durP2;ratioP2;P2;SDS_P1;SDS_P2;PMS_P1;PMS_P2;Temp;Humidity;BMP_temperature;BMP_pressure;BME280_temperature;BME280_humidity;BME280_pressure;Samples;Min_cycle;Max_cycle;Signal;HPM_P1;HPM_P2
2022/10/10 00:00:39;;;;;;;9.05;6.47;;;;;;;11.04;65.41;101334.09;4976945;28;20152;-57
2022/10/10 00:03:06;;;;;;;11.48;6.47;;;;;;;11.05;65.51;101341.13;4990874;28;20084;-57
2022/10/10 00:05:31;;;;;;;7.72;6.72;;;;;;;11.05;65.40;101333.97;4981696;28;20041;-56
2022/10/10 00:07:57;;;;;;;8.20;6.85;;;;;;;11.00;65.70;101338.72;4975748;28;20042;-57
2022/10/10 00:10:22;;;;;;;10.65;6.28;;;;;;;10.92;66.03;101327.66;4991334;28;20042;-57
2022/10/10 00:12:49;;;;;;;12.75;7.30;;;;;;;10.82;66.13;101321.97;4990531;28;20109;-57
2022/10/10 00:15:15;;;;;;;7.50;6.70;;;;;;;10.72;66.30;101314.63;4960459;28;20121;-57
2022/10/10 00:17:42;;;;;;;10.02;6.40;;;;;;;10.67;67.06;101323.69;4973229;28;20026;-56
2022/10/10 00:20:13;;;;;;;8.48;6.57;;;;;;;10.74;66.46;101323.38;4971042;28;20123;-57
2022/10/10 00:22:38;;;;;;;9.27;6.75;;;;;;;10.78;65.89;101324.91;4975684;28;20031;-57
2022/10/10 00:25:06;;;;;;;8.30;6.65;;;;;;;10.67;66.61;101322.84;4972971;28;20404;-57
2022/10/10 00:27:31;;;;;;;12.02;6.88;;;;;;;10.68;66.91;101317.47;4984637;28;20170;-57
2022/10/10 00:29:57;;;;;;;10.27;7.55;;;;;;;10.66;66.69;101322.00;4990075;28;20046;-57
2022/10/10 00:32:23;;;;;;;14.38;7.20;;;;;;;10.57;66.78;101317.19;4990721;28;20473;-57
2022/10/10 00:34:49;;;;;;;11.10;7.68;;;;;;;10.51;67.05;101324.66;5000585;28;20079;-57
2022/10/10 00:37:15;;;;;;;8.98;7.38;;;;;;;10.56;67.28;101322.56;4983679;28;20413;-57
2022/10/10 00:39:40;;;;;;;8.90;6.95;;;;;;;10.48;67.87;101316.84;4973335;28;20031;-57
2022/10/10 00:42:08;;;;;;;11.23;7.20;;;;;;;10.59;67.64;101314.44;5006443;28;20481;-57
2022/10/10 00:44:33;;;;;;;11.93;7.03;;;;;;;10.52;67.63;101319.25;4992875;28;20072;-57
2022/10/10 00:46:59;;;;;;;8.98;7.38;;;;;;;10.39;67.70;101303.13;4959487;28;20077;-57
2022/10/10 00:49:28;;;;;;;11.00;7.43;;;;;;;10.50;67.44;101309.63;4970326;28;20042;-57
2022/10/10 00:51:58;;;;;;;13.77;7.63;;;;;;;10.56;67.40;101311.94;4982634;28;20439;-57
2022/10/10 00:54:24;;;;;;;10.25;7.28;;;;;;;10.35;68.11;101301.56;4979938;28;20027;-57
2022/10/10 00:56:55;;;;;;;7.78;6.72;;;;;;;10.36;68.47;101305.09;4954863;28;20045;-57
2022/10/10 00:59:22;;;;;;;11.45;7.47;;;;;;;10.31;68.30;101296.50;4975842;28;20038;-57
2022/10/10 01:01:47;;;;;;;9.35;6.55;;;;;;;10.27;68.83;101287.84;4996945;28;20072;-57
2022/10/10 01:04:35;;;;;;;9.55;7.82;;;;;;;10.39;67.96;101305.78;4988254;28;20034;-57
2022/10/10 01:07:07;;;;;;;9.07;7.13;;;;;;;10.30;68.47;101292.13;4989779;28;20034;-57
2022/10/10 01:09:37;;;;;;;11.68;7.90;;;;;;;10.30;68.63;101294.78;4971842;28;20141;-57
2022/10/10 01:12:52;;;;;;;9.68;7.20;;;;;;;10.39;67.97;101287.16;4973466;28;20014;-57
2022/10/10 01:15:29;;;;;;;10.25;7.30;;;;;;;10.30;68.65;101285.00;4959451;28;20034;-57
2022/10/10 01:18:02;;;;;;;10.63;7.43;;;;;;;10.17;69.05;101294.53;4989593;28;20038;-57
2022/10/10 01:20:33;;;;;;;10.50;6.80;;;;;;;10.01;69.59;101284.75;4971543;28;20413;-57
2022/10/10 01:23:01;;;;;;;7.75;6.88;;;;;;;10.01;69.80;101295.38;4989578;28;20072;-57
2022/10/10 01:25:36;;;;;;;10.65;7.10;;;;;;;9.99;69.31;101283.09;4971895;28;20043;-57
2022/10/10 01:28:08;;;;;;;9.25;7.47;;;;;;;10.09;69.33;101289.66;4989388;28;20052;-56
2022/10/10 01:30:41;;;;;;;10.93;6.80;;;;;;;10.07;69.47;101290.69;4971765;28;20030;-57
2022/10/10 01:33:27;;;;;;;12.30;6.80;;;;;;;10.12;69.30;101286.84;4971463;28;20034;-57
2022/10/10 01:35:58;;;;;;;9.38;6.90;;;;;;;10.17;69.62;101287.44;4989806;28;20362;-57
2022/10/10 01:38:35;;;;;;;12.93;7.75;;;;;;;10.06;69.75;101289.84;4989403;28;20034;-57
2022/10/10 01:41:18;;;;;;;13.63;7.22;;;;;;;10.00;69.93;101280.38;4990018;28;20046;-58
2022/10/10 01:43:44;;;;;;;10.13;7.55;;;;;;;9.94;69.96;101270.09;4967407;28;20490;-57
2022/10/10 01:46:14;;;;;;;8.68;7.05;;;;;;;9.93;70.23;101275.47;4989234;28;20079;-57
2022/10/10 01:48:43;;;;;;;10.13;7.18;;;;;;;9.96;70.66;101276.16;4988838;28;20079;-56
2022/10/10 01:51:44;;;;;;;10.43;7.40;;;;;;;10.04;70.05;101272.25;4982507;28;20031;-57
2022/10/10 01:54:37;;;;;;;10.52;6.93;;;;;;;10.01;69.93;101270.59;4984648;28;20469;-57
2022/10/10 01:57:28;;;;;;;13.68;7.45;;;;;;;10.04;70.08;101274.91;4989245;28;20080;-57
2022/10/10 02:00:04;;;;;;;8.40;6.82;;;;;;;9.89;70.84;101271.28;4988648;28;20045;-57
2022/10/10 02:02:59;;;;;;;9.43;7.20;;;;;;;9.92;70.31;101266.66;4990058;28;20117;-57
2022/10/10 02:05:36;;;;;;;10.60;7.03;;;;;;;9.89;70.76;101258.00;4972344;28;20038;-57
2022/10/10 02:08:27;;;;;;;10.25;7.53;;;;;;;9.84;71.08;101265.34;4989152;28;20041;-57
2022/10/10 02:10:59;;;;;;;9.13;6.82;;;;;;;9.83;71.13;101258.31;4999978;28;20030;-57
2022/10/10 02:13:33;;;;;;;9.32;6.90;;;;;;;9.77;71.48;101251.53;4988193;28;20046;-58
2022/10/10 02:16:01;;;;;;;12.68;7.07;;;;;;;9.90;71.33;101255.22;4989745;28;20046;-57
2022/10/10 02:18:32;;;;;;;8.55;7.65;;;;;;;9.92;71.24;101252.50;4987310;28;20026;-58
2022/10/10 02:21:00;;;;;;;12.05;7.28;;;;;;;9.83;71.30;101242.38;4989736;28;20116;-57
2022/10/10 02:23:26;;;;;;;11.00;7.20;;;;;;;9.91;71.45;101250.78;4988495;28;20046;-57
2022/10/10 02:25:54;;;;;;;12.40;7.28;;;;;;;9.93;70.71;101247.09;4989483;28;20110;-57
2022/10/10 02:28:34;;;;;;;11.07;7.57;;;;;;;9.83;71.10;101247.69;4991240;28;20038;-57
2022/10/10 02:31:07;;;;;;;11.25;7.47;;;;;;;9.84;71.18;101241.44;4995474;28;20362;-57
2022/10/10 02:33:43;;;;;;;12.80;7.57;;;;;;;9.85;71.36;101246.63;4993951;28;20533;-57
2022/10/10 02:36:09;;;;;;;9.10;6.90;;;;;;;9.78;71.48;101235.50;4995047;28;20049;-57
2022/10/10 02:38:35;;;;;;;10.57;7.40;;;;;;;9.76;72.08;101237.41;4995659;28;20030;-57
2022/10/10 02:41:03;;;;;;;9.38;6.90;;;;;;;9.66;72.23;101227.34;4995788;28;20066;-57
2022/10/10 02:43:31;;;;;;;11.48;7.05;;;;;;;9.67;72.05;101227.22;4995287;28;20045;-57
2022/10/10 02:46:01;;;;;;;8.40;6.88;;;;;;;9.67;72.00;101232.53;4995297;28;20087;-56
2022/10/10 02:48:26;;;;;;;8.75;7.03;;;;;;;9.51;72.40;101215.72;4994182;28;20065;-57
2022/10/10 02:50:52;;;;;;;11.65;7.07;;;;;;;9.54;72.52;101223.53;4960946;28;20490;-57
2022/10/10 02:53:18;;;;;;;7.90;6.82;;;;;;;9.65;72.44;101228.28;4979957;28;20025;-57
2022/10/10 02:55:43;;;;;;;11.10;6.95;;;;;;;9.58;72.83;101225.06;4992300;28;20108;-57
2022/10/10 02:58:09;;;;;;;10.98;7.93;;;;;;;9.60;73.06;101219.69;4994792;28;20504;-57
2022/10/10 03:00:34;;;;;;;8.25;6.90;;;;;;;9.55;72.98;101214.63;5000956;28;20050;-56
2022/10/10 03:03:00;;;;;;;12.38;7.50;;;;;;;9.58;72.67;101218.91;4994608;28;20449;-56
2022/10/10 03:05:25;;;;;;;8.93;6.97;;;;;;;9.59;73.00;101218.84;4994318;28;20087;-57
2022/10/10 03:07:51;;;;;;;10.30;6.45;;;;;;;9.56;73.07;101211.03;4977251;28;20031;-57
2022/10/10 03:10:16;;;;;;;9.98;7.03;;;;;;;9.54;73.14;101203.13;4977638;28;20035;-57
2022/10/10 03:12:42;;;;;;;10.27;7.15;;;;;;;9.52;73.26;101194.38;4972351;28;20019;-57
2022/10/10 03:15:07;;;;;;;10.70;6.75;;;;;;;9.58;73.67;101205.63;4976875;28;20395;-57
2022/10/10 03:17:33;;;;;;;12.25;7.47;;;;;;;9.58;73.71;101206.47;4994776;28;20064;-57
2022/10/10 03:19:59;;;;;;;10.68;6.90;;;;;;;9.59;73.48;101204.69;4978981;28;20065;-56
2022/10/10 03:22:26;;;;;;;9.05;6.57;;;;;;;9.57;73.73;101202.13;4996149;28;20065;-56
2022/10/10 03:24:51;;;;;;;8.60;6.68;;;;;;;9.53;74.05;101195.28;4976914;28;20058;-57
2022/10/10 03:27:19;;;;;;;15.00;7.70;;;;;;;9.54;74.07;101191.66;4957627;28;20031;-56
2022/10/10 03:29:45;;;;;;;9.43;6.57;;;;;;;9.55;74.12;101201.34;4978775;28;20029;-56
2022/10/10 03:32:10;;;;;;;9.30;6.70;;;;;;;9.56;73.73;101197.75;4976801;28;20034;-57
2022/10/10 03:34:35;;;;;;;12.35;7.30;;;;;;;9.57;73.72;101194.16;4975984;28;20027;-56
2022/10/10 03:37:03;;;;;;;10.50;7.22;;;;;;;9.56;74.20;101203.06;4985905;28;20055;-57
2022/10/10 03:39:29;;;;;;;8.52;6.68;;;;;;;9.47;74.22;101188.50;4972780;28;20129;-57
2022/10/10 03:41:54;;;;;;;11.55;6.55;;;;;;;9.58;74.67;101208.28;4977561;28;20540;-56
2022/10/10 03:44:20;;;;;;;10.43;6.57;;;;;;;9.61;74.23;101206.31;4990568;28;20038;-57
2022/10/10 03:46:45;;;;;;;9.80;6.45;;;;;;;9.56;74.54;101208.38;4991680;28;20034;-57
2022/10/10 03:49:10;;;;;;;8.85;7.03;;;;;;;9.54;74.45;101212.91;4990516;28;20388;-58
2022/10/10 03:51:36;;;;;;;11.27;6.47;;;;;;;9.52;74.40;101206.81;4974617;28;20125;-57
2022/10/10 03:54:01;;;;;;;11.85;6.43;;;;;;;9.52;74.59;101204.16;4990682;28;20053;-57
2022/10/10 03:56:27;;;;;;;10.00;6.50;;;;;;;9.51;74.74;101210.41;4990798;28;20121;-57
2022/10/10 03:58:52;;;;;;;9.27;6.55;;;;;;;9.54;74.75;101208.44;4976242;28;20029;-58
2022/10/10 04:01:18;;;;;;;12.85;6.57;;;;;;;9.56;74.86;101208.38;5001567;28;20103;-57
2022/10/10 04:03:44;;;;;;;9.02;6.65;;;;;;;9.54;74.80;101205.78;4973040;28;20703;-56
2022/10/10 04:06:10;;;;;;;9.88;6.60;;;;;;;9.52;74.82;101202.34;4991639;28;20508;-56
2022/10/10 04:08:38;;;;;;;9.43;6.63;;;;;;;9.48;75.08;101211.44;4953616;28;20030;-56
2022/10/10 04:11:04;;;;;;;8.27;6.65;;;;;;;9.33;75.66;101204.28;4990464;28;20035;-56
2022/10/10 04:13:30;;;;;;;7.80;6.97;;;;;;;9.31;75.72;101203.50;4990409;28;20065;-57
2022/10/10 04:15:56;;;;;;;12.00;6.95;;;;;;;9.25;75.91;101202.00;4991647;28;20298;-57
2022/10/10 04:18:22;;;;;;;12.52;6.68;;;;;;;9.24;76.06;101200.31;4973150;28;20133;-57
2022/10/10 04:20:48;;;;;;;12.20;7.50;;;;;;;9.28;75.69;101204.50;4962108;28;20062;-57
2022/10/10 04:23:13;;;;;;;10.48;7.05;;;;;;;9.21;76.19;101210.22;4974150;28;20137;-56
2022/10/10 04:25:40;;;;;;;9.88;6.85;;;;;;;9.18;76.46;101200.63;4990247;28;20439;-57
2022/10/10 04:28:06;;;;;;;11.18;6.82;;;;;;;9.10;76.66;101203.66;4990799;28;20045;-57
2022/10/10 04:30:33;;;;;;;9.32;7.03;;;;;;;9.05;77.12;101203.03;4994655;28;20039;-57
2022/10/10 04:32:59;;;;;;;9.95;7.47;;;;;;;9.05;77.03;101200.38;4985663;28;20022;-57
2022/10/10 04:35:24;;;;;;;8.38;6.63;;;;;;;9.08;77.00;101208.19;4973535;28;20028;-57
2022/10/10 04:37:50;;;;;;;11.70;6.97;;;;;;;9.04;76.97;101196.03;4972371;28;20121;-57
2022/10/10 04:40:15;;;;;;;13.23;7.18;;;;;;;9.05;77.08;101203.03;4989270;28;20038;-57
2022/10/10 04:42:42;;;;;;;10.35;7.45;;;;;;;9.07;77.02;101205.63;4990368;28;20501;-56
2022/10/10 04:45:08;;;;;;;8.68;7.13;;;;;;;8.92;77.83;101199.31;4990477;28;20065;-56
2022/10/10 04:47:33;;;;;;;13.35;7.10;;;;;;;8.93;77.56;101195.69;4974118;28;20523;-57
2022/10/10 04:50:02;;;;;;;8.63;6.75;;;;;;;8.94;77.62;101199.19;4989494;28;20045;-56
2022/10/10 04:52:28;;;;;;;10.35;7.57;;;;;;;8.93;77.53;101200.16;4989407;28;20034;-57
2022/10/10 04:54:56;;;;;;;12.10;7.32;;;;;;;8.94;77.75;101201.84;4990024;28;20075;-57
2022/10/10 04:57:21;;;;;;;9.57;7.07;;;;;;;8.87;78.28;101196.88;4990542;28;20568;-57
2022/10/10 04:59:49;;;;;;;10.00;7.00;;;;;;;8.92;78.18;101195.78;4990593;28;20118;-57
2022/10/10 05:02:14;;;;;;;12.10;7.95;;;;;;;8.86;78.54;101194.31;4990082;28;20038;-57
2022/10/10 05:04:40;;;;;;;10.10;7.55;;;;;;;8.87;78.41;101196.88;4989378;28;20030;-57
2022/10/10 05:07:05;;;;;;;9.93;7.00;;;;;;;8.91;78.39;101194.06;4991430;28;20087;-56
2022/10/10 05:09:32;;;;;;;12.13;7.78;;;;;;;8.93;78.50;101189.53;4989553;28;20042;-57
2022/10/10 05:12:01;;;;;;;8.35;7.20;;;;;;;8.87;78.53;101194.22;4959960;28;20062;-56
2022/10/10 05:14:28;;;;;;;11.02;7.50;;;;;;;8.86;78.77;101189.00;4986365;28;20061;-56
2022/10/10 05:16:54;;;;;;;12.45;7.00;;;;;;;8.86;79.06;101186.34;4989772;28;20038;-57
2022/10/10 05:19:19;;;;;;;9.55;6.55;;;;;;;8.84;78.40;101188.22;4989403;28;20062;-56
2022/10/10 05:21:45;;;;;;;10.10;7.25;;;;;;;8.79;78.93;101188.44;4990254;28;20048;-58
2022/10/10 05:24:10;;;;;;;9.95;7.10;;;;;;;8.79;78.91;101190.22;4988671;28;20384;-56
2022/10/10 05:26:38;;;;;;;9.82;7.30;;;;;;;8.79;79.28;101193.72;4974931;28;20145;-56
2022/10/10 05:29:04;;;;;;;11.27;7.15;;;;;;;8.81;79.02;101183.91;4978190;28;20030;-57
2022/10/10 05:31:30;;;;;;;9.38;6.68;;;;;;;8.81;79.25;101197.19;4971887;28;20030;-57
2022/10/10 05:33:55;;;;;;;9.60;7.47;;;;;;;8.80;79.54;101200.78;4978018;28;20037;-57
2022/10/10 05:36:21;;;;;;;9.75;7.53;;;;;;;8.83;79.44;101192.66;4995151;28;20038;-57
2022/10/10 05:38:46;;;;;;;8.55;7.38;;;;;;;8.79;79.47;101193.72;4989370;28;20026;-57
2022/10/10 05:41:12;;;;;;;12.00;7.78;;;;;;;8.71;80.15;101193.28;4972013;28;20048;-57
2022/10/10 05:43:37;;;;;;;10.85;7.22;;;;;;;8.72;80.18;101200.28;4988632;28;20489;-57
2022/10/10 05:46:03;;;;;;;9.80;7.35;;;;;;;8.71;80.39;101190.63;4984657;28;20037;-57
2022/10/10 05:48:29;;;;;;;13.07;7.88;;;;;;;8.73;80.36;101198.50;4971516;28;20393;-57
2022/10/10 05:50:56;;;;;;;11.95;7.35;;;;;;;8.72;80.64;101199.44;4988465;28;20034;-57
2022/10/10 05:53:24;;;;;;;10.23;7.40;;;;;;;8.69;80.61;101199.59;4989091;28;20022;-57
2022/10/10 05:55:50;;;;;;;9.88;7.43;;;;;;;8.71;80.33;101193.28;4989064;28;20391;-57
2022/10/10 05:58:16;;;;;;;11.25;7.85;;;;;;;8.75;80.74;101202.78;4989408;28;20034;-57
2022/10/10 06:00:43;;;;;;;16.75;7.65;;;;;;;8.71;80.92;101203.03;4986424;28;20068;-58
2022/10/10 06:03:12;;;;;;;10.93;7.68;;;;;;;8.73;81.09;101195.84;4970463;28;20014;-57
2022/10/10 06:05:39;;;;;;;14.68;8.30;;;;;;;8.67;81.24;101204.94;4989267;28;20037;-57
2022/10/10 06:08:06;;;;;;;9.70;7.72;;;;;;;8.68;81.18;101197.84;4970259;28;20035;-57
2022/10/10 06:10:37;;;;;;;12.05;7.90;;;;;;;8.70;81.25;101198.66;4977694;28;20102;-57
2022/10/10 06:13:03;;;;;;;10.95;7.90;;;;;;;8.68;81.88;101198.75;4990434;28;20049;-57
2022/10/10 06:15:29;;;;;;;14.50;7.22;;;;;;;8.67;81.53;101204.94;4967787;28;20535;-57
2022/10/10 06:17:54;;;;;;;11.93;7.75;;;;;;;8.67;81.99;101206.75;4989772;28;20026;-57
2022/10/10 06:20:20;;;;;;;11.90;7.65;;;;;;;8.66;82.00;101205.91;4965108;28;20094;-57
2022/10/10 06:22:45;;;;;;;12.85;7.88;;;;;;;8.66;82.16;101216.50;4967311;28;20058;-57
2022/10/10 06:25:11;;;;;;;13.32;8.35;;;;;;;8.68;82.55;101209.34;4969190;28;20077;-58
2022/10/10 06:27:36;;;;;;;10.45;7.18;;;;;;;8.66;82.29;101219.16;4968483;28;20076;-57
2022/10/10 06:30:05;;;;;;;12.13;7.75;;;;;;;8.68;82.85;101206.69;4971684;28;20046;-57
2022/10/10 06:32:31;;;;;;;11.82;7.70;;;;;;;8.69;83.06;101204.91;4972216;28;20027;-56
2022/10/10 06:34:57;;;;;;;15.50;8.30;;;;;;;8.75;82.67;101207.25;4967488;28;20453;-57
2022/10/10 06:37:22;;;;;;;11.60;7.78;;;;;;;8.78;82.68;101210.59;4969199;28;20055;-56
2022/10/10 06:39:47;;;;;;;11.73;7.88;;;;;;;8.79;83.45;101220.25;4973727;28;20046;-56
2022/10/10 06:42:15;;;;;;;11.20;7.70;;;;;;;8.80;83.10;101214.03;4944439;29;20127;-56
2022/10/10 06:44:40;;;;;;;12.95;7.80;;;;;;;8.80;83.34;101214.03;4956688;28;20031;-56
2022/10/10 06:47:07;;;;;;;12.52;7.93;;;;;;;8.83;83.55;101220.97;4969114;28;20096;-57
2022/10/10 06:49:32;;;;;;;14.05;7.63;;;;;;;8.85;83.71;101232.34;4966505;28;20039;-56
2022/10/10 06:51:57;;;;;;;13.32;7.47;;;;;;;8.89;83.61;101228.63;4969385;28;20540;-57
2022/10/10 06:54:23;;;;;;;11.55;7.60;;;;;;;8.95;83.47;101230.13;4969692;28;20027;-56
2022/10/10 06:56:48;;;;;;;14.38;7.63;;;;;;;8.96;83.52;101219.41;4984644;28;20030;-56
2022/10/10 06:59:14;;;;;;;11.75;8.25;;;;;;;9.05;83.67;101234.00;4968312;28;20034;-56
2022/10/10 07:01:39;;;;;;;14.88;8.18;;;;;;;9.08;83.89;101229.41;4986819;28;20043;-57
2022/10/10 07:04:05;;;;;;;13.57;7.20;;;;;;;9.14;84.18;101227.38;4967413;28;20035;-56
2022/10/10 07:06:30;;;;;;;11.02;7.78;;;;;;;9.18;83.80;101231.63;4969722;28;20396;-57
2022/10/10 07:08:57;;;;;;;12.88;7.43;;;;;;;9.22;84.43;101233.16;4968807;28;20072;-56
2022/10/10 07:11:24;;;;;;;12.88;8.10;;;;;;;9.31;84.27;101238.84;4981730;28;20469;-57
2022/10/10 07:13:51;;;;;;;15.15;8.68;;;;;;;9.32;84.21;101229.97;4987162;28;20030;-56
2022/10/10 07:16:17;;;;;;;15.45;8.60;;;;;;;9.42;84.35;101238.31;4976882;28;20031;-57
2022/10/10 07:18:42;;;;;;;14.98;8.52;;;;;;;9.52;84.34;101244.84;4970131;28;20042;-57
2022/10/10 07:21:08;;;;;;;11.35;8.70;;;;;;;9.60;84.17;101236.47;4997426;28;20156;-57
2022/10/10 07:23:35;;;;;;;11.15;8.38;;;;;;;9.69;83.96;101243.09;5006462;28;20109;-57
2022/10/10 07:26:04;;;;;;;15.32;8.88;;;;;;;9.77;84.37;101243.56;4975063;28;20665;-56
2022/10/10 07:28:29;;;;;;;15.85;8.05;;;;;;;9.87;84.33;101242.13;4975078;28;20042;-56
2022/10/10 07:31:03;;;;;;;13.48;7.82;;;;;;;9.95;83.70;101239.91;4988669;28;20143;-56
2022/10/10 07:33:35;;;;;;;15.60;9.05;;;;;;;9.98;83.54;101228.25;4989267;28;20118;-57
2022/10/10 07:36:00;;;;;;;14.57;8.52;;;;;;;10.17;83.89;101241.38;4991732;28;20034;-56
2022/10/10 07:38:26;;;;;;;11.52;8.30;;;;;;;10.24;83.58;101250.75;4970791;28;20057;-57
2022/10/10 07:40:51;;;;;;;14.50;8.73;;;;;;;10.34;83.81;101241.34;4989548;28;20400;-56
2022/10/10 07:43:19;;;;;;;15.80;9.50;;;;;;;10.42;83.59;101248.91;4990296;28;20046;-57
2022/10/10 07:45:45;;;;;;;12.68;8.82;;;;;;;10.50;83.23;101259.97;4992319;28;20045;-57
2022/10/10 07:48:13;;;;;;;14.15;8.98;;;;;;;10.62;83.13;101263.75;4956142;28;20485;-56
2022/10/10 07:50:40;;;;;;;14.27;8.48;;;;;;;10.72;82.67;101248.97;4990268;28;20109;-56
2022/10/10 07:53:07;;;;;;;11.50;8.02;;;;;;;10.84;82.10;101255.38;4990597;28;20026;-57
2022/10/10 07:55:33;;;;;;;17.25;8.38;;;;;;;10.91;82.28;101270.03;4992175;28;20125;-57
2022/10/10 07:58:01;;;;;;;14.13;8.18;;;;;;;10.99;81.92;101272.25;4991581;28;20035;-57
2022/10/10 08:00:27;;;;;;;17.00;8.57;;;;;;;11.05;82.04;101272.75;4991369;28;20167;-57
2022/10/10 08:02:52;;;;;;;15.00;8.93;;;;;;;11.12;81.67;101282.13;4991233;28;20109;-57
2022/10/10 08:05:18;;;;;;;12.95;8.77;;;;;;;11.21;82.01;101277.22;4973377;28;20038;-56
2022/10/10 08:07:43;;;;;;;18.85;8.43;;;;;;;11.29;81.77;101265.13;4991347;28;20030;-57
2022/10/10 08:10:09;;;;;;;15.18;8.13;;;;;;;11.47;81.24;101268.53;4974708;28;20063;-57
2022/10/10 08:12:37;;;;;;;16.83;8.05;;;;;;;11.60;81.33;101284.63;4974169;28;20114;-56
2022/10/10 08:15:04;;;;;;;20.23;8.30;;;;;;;11.67;80.79;101277.09;4975719;28;20427;-56
2022/10/10 08:17:33;;;;;;;17.45;8.45;;;;;;;11.76;80.01;101264.06;5010660;28;20473;-57
2022/10/10 08:19:59;;;;;;;14.70;7.40;;;;;;;11.91;80.02;101272.09;4992723;28;20072;-57
2022/10/10 08:22:24;;;;;;;14.15;7.75;;;;;;;12.13;79.58;101280.50;4977140;28;20384;-56
2022/10/10 08:24:52;;;;;;;12.82;7.07;;;;;;;12.20;79.26;101275.63;5010523;28;20026;-56
2022/10/10 08:27:18;;;;;;;12.80;7.38;;;;;;;12.25;79.67;101273.53;5008404;28;20375;-57
2022/10/10 08:29:43;;;;;;;15.75;7.45;;;;;;;12.34;79.00;101283.59;4993082;28;20412;-57
2022/10/10 08:32:12;;;;;;;16.23;7.20;;;;;;;12.36;79.17;101278.19;5010983;28;20042;-57
2022/10/10 08:34:37;;;;;;;11.95;7.63;;;;;;;12.40;78.89;101282.38;5008984;28;20030;-56
2022/10/10 08:37:03;;;;;;;16.05;7.38;;;;;;;12.42;78.77;101285.81;4990814;28;20380;-56
2022/10/10 08:39:28;;;;;;;16.23;7.03;;;;;;;12.46;79.34;101282.81;4973198;28;20132;-57
2022/10/10 08:41:57;;;;;;;10.70;6.57;;;;;;;12.54;79.21;101287.69;4973310;28;20062;-56
2022/10/10 08:44:56;;;;;;;12.27;7.13;;;;;;;12.69;78.10;101285.84;4990329;28;20042;-56
2022/10/10 08:48:03;;;;;;;13.90;6.90;;;;;;;12.79;77.60;101288.75;4983145;28;20050;-57
2022/10/10 08:50:41;;;;;;;16.17;7.20;;;;;;;12.88;77.42;101272.13;5010534;28;20033;-56
2022/10/10 08:53:25;;;;;;;13.75;7.22;;;;;;;13.03;77.05;101286.28;5011202;28;20018;-57
2022/10/10 08:55:52;;;;;;;11.10;6.30;;;;;;;13.23;77.63;101279.59;5008838;28;20068;-57
2022/10/10 08:58:17;;;;;;;13.05;7.03;;;;;;;13.44;76.42;101280.00;5010304;28;20040;-57
2022/10/10 09:01:06;;;;;;;10.57;7.28;;;;;;;13.63;75.25;101283.97;4992746;28;20038;-57
2022/10/10 09:03:50;;;;;;;13.25;6.63;;;;;;;13.86;75.11;101285.06;5009740;28;20055;-56
2022/10/10 09:06:35;;;;;;;11.30;6.43;;;;;;;14.04;73.03;101284.75;4991371;28;20030;-56
2022/10/10 09:09:10;;;;;;;9.63;6.13;;;;;;;14.24;73.32;101291.34;5009605;28;20072;-57
2022/10/10 09:11:59;;;;;;;15.05;6.55;;;;;;;14.26;72.08;101287.56;5010288;28;20034;-57
2022/10/10 09:14:46;;;;;;;13.80;6.85;;;;;;;14.31;72.38;101284.59;5006515;28;20378;-57
2022/10/10 09:17:48;;;;;;;10.38;6.03;;;;;;;14.36;73.04;101292.31;4990561;28;20104;-57
2022/10/10 09:20:44;;;;;;;12.30;6.13;;;;;;;14.45;72.38;101302.34;4989702;28;20038;-57
2022/10/10 09:23:40;;;;;;;10.45;5.85;;;;;;;14.61;72.19;101294.91;4990127;28;20030;-58
2022/10/10 09:26:13;;;;;;;10.55;5.70;;;;;;;14.71;71.19;101300.47;4990985;28;20132;-56
2022/10/10 09:28:44;;;;;;;11.73;5.72;;;;;;;14.76;71.07;101309.88;4990088;28;20477;-57
2022/10/10 09:31:36;;;;;;;10.18;6.00;;;;;;;14.76;70.37;101311.69;4990028;28;20435;-57
2022/10/10 09:34:13;;;;;;;13.15;5.80;;;;;;;14.86;70.37;101317.25;4990559;28;20401;-57
2022/10/10 09:36:39;;;;;;;11.18;5.95;;;;;;;15.04;70.32;101320.38;5009397;28;20106;-57
2022/10/10 09:39:31;;;;;;;11.00;5.90;;;;;;;15.26;70.21;101323.16;5008611;28;20017;-58
2022/10/10 09:41:59;;;;;;;10.88;5.63;;;;;;;15.45;68.92;101320.78;5009325;28;20392;-57
2022/10/10 09:44:25;;;;;;;10.40;5.55;;;;;;;15.65;68.66;101316.59;5007320;28;20037;-57
2022/10/10 09:46:52;;;;;;;7.07;5.72;;;;;;;15.79;68.08;101322.75;5009646;28;20022;-58
2022/10/10 09:49:19;;;;;;;17.42;6.10;;;;;;;15.88;69.09;101320.22;5008917;28;20032;-57
2022/10/10 09:51:46;;;;;;;14.25;5.30;;;;;;;15.80;66.09;101333.38;5009467;28;20034;-57
2022/10/10 09:54:14;;;;;;;9.45;5.15;;;;;;;15.69;67.08;101338.69;4986669;28;20071;-57
2022/10/10 09:56:46;;;;;;;10.43;4.85;;;;;;;15.51;67.62;101332.03;4989791;28;20385;-57
2022/10/10 09:59:44;;;;;;;10.00;5.50;;;;;;;15.48;67.84;101343.84;4989685;28;20393;-57
2022/10/10 10:02:23;;;;;;;11.23;5.28;;;;;;;15.42;68.72;101339.78;4989724;28;20018;-57
2022/10/10 10:04:51;;;;;;;;;;;;;;;15.45;68.29;101341.41;4990333;28;20030;-57
2022/10/10 10:07:30;;;;;;;12.63;5.80;;;;;;;15.33;69.40;101343.16;4972338;28;19906;-57
2022/10/10 10:10:03;;;;;;;9.93;5.30;;;;;;;15.32;69.29;101332.56;4972134;28;20026;-57
2022/10/10 10:12:39;;;;;;;12.75;6.85;;;;;;;15.30;69.29;101334.50;4989372;28;20038;-57
2022/10/10 10:15:15;;;;;;;12.77;5.88;;;;;;;15.30;68.97;101339.88;5003472;28;20038;-57
2022/10/10 10:17:43;;;;;;;12.65;6.53;;;;;;;15.29;68.74;101343.50;5007212;28;20082;-57
2022/10/10 10:20:27;;;;;;;11.95;5.95;;;;;;;15.36;68.59;101344.78;5008324;28;20081;-57
2022/10/10 10:22:53;;;;;;;12.57;6.20;;;;;;;15.34;68.63;101335.97;4999845;28;20076;-57
2022/10/10 10:25:34;;;;;;;11.68;6.07;;;;;;;15.51;69.10;101340.06;4989092;28;20039;-57
2022/10/10 10:28:19;;;;;;;15.80;6.43;;;;;;;15.66;68.57;101336.22;4972857;28;20451;-57
2022/10/10 10:30:46;;;;;;;11.15;6.25;;;;;;;15.85;67.58;101339.25;4989375;28;20030;-57
2022/10/10 10:33:11;;;;;;;15.50;6.80;;;;;;;16.19;66.32;101343.78;4989716;28;20512;-57
2022/10/10 10:35:50;;;;;;;12.93;5.95;;;;;;;16.43;65.88;101339.13;5008496;28;20022;-57
2022/10/10 10:38:31;;;;;;;13.88;5.80;;;;;;;16.77;64.93;101349.91;5004730;28;20038;-57
2022/10/10 10:40:59;;;;;;;12.15;5.97;;;;;;;17.25;63.99;101355.75;4989285;28;20026;-57
2022/10/10 10:43:57;;;;;;;10.13;6.03;;;;;;;17.70;63.89;101355.53;4972032;28;20400;-57
2022/10/10 10:46:43;;;;;;;10.25;5.32;;;;;;;17.70;61.92;101360.06;4988519;28;20056;-57
2022/10/10 10:49:27;;;;;;;12.57;5.43;;;;;;;17.43;61.10;101376.72;4990363;28;20038;-57
2022/10/10 10:52:08;;;;;;;16.10;5.90;;;;;;;17.23;62.39;101370.28;4992490;28;20050;-57
2022/10/10 10:54:40;;;;;;;12.63;5.82;;;;;;;17.44;61.22;101378.41;4992398;28;20397;-57
2022/10/10 10:57:28;;;;;;;12.85;5.05;;;;;;;17.93;60.93;101371.59;4992259;28;20049;-57
2022/10/10 11:00:04;;;;;;;17.17;5.32;;;;;;;17.95;60.83;101374.19;4955509;28;20023;-56
2022/10/10 11:02:44;;;;;;;10.45;5.47;;;;;;;18.00;60.36;101374.59;4972700;28;20037;-57
2022/10/10 11:05:20;;;;;;;10.88;5.53;;;;;;;18.11;60.82;101375.38;4972515;28;20486;-57
2022/10/10 11:08:29;;;;;;;11.77;4.97;;;;;;;18.46;60.34;101390.31;4976695;28;20038;-57
2022/10/10 11:11:09;;;;;;;11.85;5.22;;;;;;;18.49;59.01;101392.75;4991742;28;20046;-57
2022/10/10 11:13:57;;;;;;;12.05;4.70;;;;;;;18.48;59.77;101384.81;4955441;28;20436;-57
2022/10/10 11:16:55;;;;;;;14.52;5.47;;;;;;;18.58;59.38;101386.53;4972858;28;20031;-57
2022/10/10 11:19:28;;;;;;;7.72;4.60;;;;;;;18.36;59.76;101392.97;4971946;28;20458;-58
2022/10/10 11:21:53;;;;;;;14.15;5.63;;;;;;;18.61;59.08;101401.59;4955309;28;20026;-57
2022/10/10 11:24:29;;;;;;;14.10;5.18;;;;;;;19.16;58.46;101387.75;4972511;28;20035;-57
2022/10/10 11:26:59;;;;;;;14.77;4.60;;;;;;;20.10;56.45;101393.44;4972585;28;20022;-57
2022/10/10 11:29:51;;;;;;;15.07;4.60;;;;;;;20.81;55.23;101409.16;4991865;28;20030;-57
2022/10/10 11:32:27;;;;;;;16.30;5.50;;;;;;;21.13;51.65;101400.56;4992022;28;20113;-57
2022/10/10 11:35:13;;;;;;;11.23;5.07;;;;;;;21.47;51.10;101403.50;4991567;28;20034;-57
2022/10/10 11:37:45;;;;;;;8.82;5.00;;;;;;;21.64;50.94;101400.94;5000116;28;20082;-57
2022/10/10 11:40:27;;;;;;;9.70;4.60;;;;;;;22.26;50.34;101395.53;5011613;28;20037;-58